Time;durP1;ratioP1;P1;durP2;ratioP2;P2;SDS_P1;SDS_P2;PMS_P1;PMS_P2;Temp;Humidity;BMP_temperature;BMP_pressure;BME280_temperature;BME280_humidity;BME280_pressure;Samples;Min_cycle;Max_cycle;Signal;HPM_P1;HPM_P2
2022/03/21 00:01:45;;;;;;;81.72;58.30;;;6.60;99.90;;;6.63;71.07;102717.09;5113648;28;20044;-70
2022/03/21 00:04:13;;;;;;;79.65;57.35;;;6.60;99.90;;;6.68;71.34;102739.19;5113918;28;20054;-70
2022/03/21 00:06:43;;;;;;;89.32;59.30;;;6.50;99.90;;;6.82;71.49;102760.81;5113628;28;20044;-70
2022/03/21 00:09:12;;;;;;;82.72;57.80;;;6.50;99.90;;;6.90;71.27;102748.88;5113627;28;20048;-70
2022/03/21 00:11:40;;;;;;;88.68;61.47;;;6.60;99.90;;;6.86;71.24;102749.56;5113512;28;20039;-70
2022/03/21 00:14:10;;;;;;;84.47;59.95;;;6.60;99.90;;;6.64;71.92;102755.69;5113545;28;20073;-70
2022/03/21 00:16:39;;;;;;;80.43;57.60;;;6.60;99.90;;;5.81;72.41;102643.44;5113544;28;20070;-70
2022/03/21 00:19:07;;;;;;;84.35;59.53;;;6.40;99.90;;;6.47;72.95;102753.16;5113395;28;20301;-70
2022/03/21 00:21:36;;;;;;;87.82;60.03;;;6.20;99.90;;;6.29;73.01;102756.81;5112996;28;20039;-71
2022/03/21 00:24:07;;;;;;;85.97;59.50;;;6.10;99.90;;;6.15;73.21;102738.69;5095606;28;20044;-70
2022/03/21 00:26:36;;;;;;;83.97;57.90;;;6.10;99.90;;;6.42;73.27;102757.34;5113710;28;20055;-70
2022/03/21 00:29:11;;;;;;;85.03;59.17;;;6.10;99.90;;;6.37;73.25;102758.03;5095515;28;20217;-70
2022/03/21 00:31:39;;;;;;;86.18;58.20;;;6.10;99.90;;;6.26;73.30;102756.69;5095408;28;20063;-70
2022/03/21 00:34:08;;;;;;;83.38;57.10;;;6.00;99.90;;;6.09;72.95;102736.69;5113613;28;20048;-70
2022/03/21 00:36:36;;;;;;;85.45;58.85;;;6.10;99.90;;;6.16;73.24;102741.38;5113351;28;20044;-70
2022/03/21 00:39:21;;;;;;;86.25;57.35;;;6.00;99.90;;;6.22;73.49;102754.78;5113285;28;20123;-70
2022/03/21 00:41:51;;;;;;;84.47;57.53;;;6.00;99.90;;;6.31;73.27;102755.16;5113311;28;20066;-71
2022/03/21 00:44:19;;;;;;;87.13;58.50;;;6.00;99.90;;;5.96;73.34;102694.06;5113262;28;20108;-70
2022/03/21 00:46:48;;;;;;;85.10;61.03;;;6.10;99.90;;;6.41;73.01;102745.94;5095187;28;20093;-70
2022/03/21 00:49:17;;;;;;;87.93;59.90;;;6.20;99.90;;;5.88;73.22;102650.81;5113231;28;20043;-70
2022/03/21 00:51:45;;;;;;;86.22;58.42;;;6.20;99.90;;;6.26;73.18;102713.75;5113278;28;20044;-70
2022/03/21 00:54:13;;;;;;;86.05;58.10;;;6.20;99.90;;;6.65;72.71;102761.84;5113444;28;20069;-70
2022/03/21 00:56:43;;;;;;;83.85;58.30;;;6.30;99.90;;;6.43;72.33;102728.50;5113691;28;20039;-70
2022/03/21 00:59:12;;;;;;;83.72;58.08;;;6.40;99.90;;;6.61;72.10;102759.91;5113018;28;20093;-70
2022/03/21 01:01:40;;;;;;;85.68;59.38;;;6.30;99.90;;;6.55;72.36;102767.53;5113563;28;20039;-71
2022/03/21 01:04:09;;;;;;;85.07;59.55;;;6.30;99.90;;;6.39;72.30;102760.72;5113196;28;20503;-71
2022/03/21 01:06:38;;;;;;;83.28;57.13;;;6.20;99.90;;;6.30;72.59;102737.59;5113313;28;20210;-70
2022/03/21 01:09:08;;;;;;;84.53;57.25;;;6.20;99.90;;;6.53;72.45;102771.84;5094683;28;20548;-70
2022/03/21 01:11:37;;;;;;;90.55;61.15;;;6.20;99.90;;;6.55;72.36;102772.81;5112974;28;20065;-70
2022/03/21 01:14:07;;;;;;;88.53;58.92;;;6.30;99.90;;;6.36;72.38;102735.25;5094882;28;20066;-70
2022/03/21 01:16:35;;;;;;;91.47;60.83;;;6.30;99.90;;;6.46;72.68;102778.59;5112907;28;20048;-71
2022/03/21 01:19:04;;;;;;;87.15;59.40;;;6.20;99.90;;;4.72;72.38;102454.13;5094897;28;20048;-71
2022/03/21 01:21:33;;;;;;;86.30;58.95;;;6.20;99.90;;;6.50;72.55;102795.38;5113122;28;20046;-70
2022/03/21 01:24:02;;;;;;;85.07;59.33;;;6.30;99.90;;;6.51;72.49;102773.50;5113188;28;20122;-71
2022/03/21 01:26:31;;;;;;;86.90;59.27;;;6.20;99.90;;;6.55;72.58;102771.06;5113146;28;20100;-70
2022/03/21 01:28:59;;;;;;;90.28;60.83;;;6.30;99.90;;;6.60;72.51;102771.28;5094507;28;20083;-71
2022/03/21 01:31:29;;;;;;;92.00;61.13;;;6.30;99.90;;;6.61;71.98;102773.06;5113020;28;20051;-70
2022/03/21 01:33:58;;;;;;;85.70;59.42;;;6.40;99.90;;;4.91;72.10;102460.22;5114045;28;20061;-71
2022/03/21 01:36:27;;;;;;;90.32;62.42;;;6.40;99.90;;;6.56;71.85;102769.34;5116394;28;20142;-71
2022/03/21 01:38:55;;;;;;;89.43;61.45;;;6.30;99.90;;;6.41;72.12;102755.56;5116170;28;20044;-70
2022/03/21 01:41:24;;;;;;;84.75;59.25;;;6.30;99.90;;;6.69;71.84;102782.19;5116592;28;20039;-71
2022/03/21 01:43:57;;;;;;;88.22;60.72;;;6.40;99.90;;;6.72;71.98;102784.91;5116539;28;20048;-70
2022/03/21 01:46:27;;;;;;;91.82;62.90;;;6.40;99.90;;;6.76;71.53;102782.50;5116540;28;20047;-70
2022/03/21 01:48:59;;;;;;;90.15;61.55;;;6.40;99.90;;;6.75;71.52;102791.22;5098206;28;20501;-71
2022/03/21 01:51:28;;;;;;;87.63;59.63;;;6.40;99.90;;;6.66;71.59;102782.94;5116121;28;20040;-70
2022/03/21 01:56:48;;;;;;;92.03;61.35;;;6.40;99.90;;;6.77;71.16;102758.00;5116112;28;20047;-70
2022/03/21 01:59:19;;;;;;;88.22;61.03;;;6.60;99.90;;;7.01;70.71;102790.56;5116139;28;20047;-70
2022/03/21 02:01:47;;;;;;;;;;;6.70;99.90;;;7.00;70.41;102769.44;5116346;28;20074;-70
2022/03/21 02:04:18;;;;;;;86.80;58.78;;;6.80;99.90;;;7.02;70.42;102788.84;5116047;28;19920;-70
2022/03/21 02:06:47;;;;;;;87.85;59.28;;;6.80;99.90;;;7.20;70.09;102797.47;5115812;28;20044;-70
2022/03/21 02:09:15;;;;;;;83.78;59.63;;;6.80;99.90;;;6.99;70.20;102791.31;5115665;28;20044;-70
2022/03/21 02:11:44;;;;;;;90.22;60.75;;;6.80;99.90;;;6.85;70.69;102788.13;5116027;28;20039;-70
2022/03/21 02:14:12;;;;;;;90.80;61.63;;;6.60;99.90;;;6.81;71.12;102793.22;5115930;28;20074;-70
2022/03/21 02:16:41;;;;;;;84.55;59.75;;;6.60;99.90;;;6.81;71.28;102796.75;5115858;28;20047;-70
2022/03/21 02:19:29;;;;;;;88.82;62.42;;;6.50;99.90;;;6.65;71.13;102759.22;5115523;28;20104;-70
2022/03/21 02:22:31;;;;;;;89.40;61.35;;;6.50;99.90;;;6.90;70.79;102798.84;5115559;28;20039;-70
2022/03/21 02:25:22;;;;;;;90.18;58.95;;;6.50;99.90;;;6.84;71.01;102802.13;5114872;28;20168;-71
2022/03/21 02:27:51;;;;;;;;;;;6.50;99.90;;;6.86;71.03;102796.91;5116254;28;20400;-70
2022/03/21 02:30:20;;;;;;;88.32;58.90;;;6.50;99.90;;;6.70;71.30;102792.75;5115418;28;20353;-70
2022/03/21 02:32:49;;;;;;;86.00;60.08;;;6.40;99.90;;;6.52;72.26;102797.25;5115304;28;20040;-70
2022/03/21 02:35:18;;;;;;;89.72;61.30;;;6.30;99.90;;;6.46;72.44;102801.34;5115588;28;20073;-70
2022/03/21 02:37:48;;;;;;;89.57;60.53;;;6.20;99.90;;;5.59;72.92;102644.25;5115505;28;20446;-70
2022/03/21 02:40:17;;;;;;;90.03;61.05;;;6.10;99.90;;;6.07;72.68;102729.56;5115039;28;20047;-70
2022/03/21 02:42:49;;;;;;;86.97;60.72;;;6.20;99.90;;;6.18;72.99;102747.59;5115399;28;20048;-70
2022/03/21 02:45:17;;;;;;;;;;;6.20;99.90;;;6.43;73.00;102786.31;5115252;28;20507;-70
2022/03/21 02:47:46;;;;;;;88.20;58.72;;;6.20;99.90;;;6.50;72.69;102798.00;5115331;28;19937;-71
2022/03/21 02:50:20;;;;;;;92.22;61.72;;;6.20;99.90;;;6.36;72.62;102789.53;5114996;28;20489;-70
2022/03/21 02:52:50;;;;;;;87.18;61.83;;;6.20;99.90;;;6.40;72.95;102796.72;5115300;28;20100;-70
2022/03/21 02:55:18;;;;;;;;;;;6.20;99.90;;;6.27;73.12;102797.91;5115329;28;20046;-70
2022/03/21 02:57:48;;;;;;;93.65;60.00;;;6.10;99.90;;;6.26;73.61;102808.34;5114692;28;20388;-70
2022/03/21 03:00:17;;;;;;;89.63;60.00;;;6.00;99.90;;;6.38;73.29;102816.78;5114684;28;20081;-70
2022/03/21 03:02:46;;;;;;;91.63;61.55;;;6.10;99.90;;;6.22;73.39;102770.53;5114604;28;20036;-71
2022/03/21 03:05:14;;;;;;;91.78;61.70;;;6.20;99.90;;;6.42;73.50;102794.16;5096367;28;20108;-71
2022/03/21 03:07:43;;;;;;;90.22;60.60;;;6.20;99.90;;;6.59;73.04;102798.38;5114892;28;20047;-71
2022/03/21 03:10:11;;;;;;;89.10;61.20;;;6.30;99.90;;;6.58;72.53;102801.88;5114678;28;20393;-71
2022/03/21 03:12:40;;;;;;;90.53;60.30;;;6.30;99.90;;;6.33;72.91;102758.75;5114747;28;20394;-71
2022/03/21 03:15:10;;;;;;;86.00;59.63;;;6.30;99.90;;;6.58;72.68;102801.88;5114765;28;20038;-72
2022/03/21 03:17:39;;;;;;;86.68;59.92;;;6.30;99.90;;;6.42;72.95;102800.31;5096548;28;20086;-71
2022/03/21 03:20:10;;;;;;;85.70;58.83;;;6.20;99.90;;;6.34;73.27;102792.09;5096310;28;20370;-71
2022/03/21 03:22:41;;;;;;;86.00;58.67;;;6.10;99.90;;;6.35;73.66;102793.88;5114455;28;20039;-71
2022/03/21 03:25:10;;;;;;;83.72;59.35;;;6.10;99.90;;;6.39;73.51;102794.91;5096352;28;20059;-71
2022/03/21 03:27:39;;;;;;;90.25;61.03;;;6.10;99.90;;;6.38;73.86;102804.53;5114218;28;20055;-70
2022/03/21 03:30:10;;;;;;;87.25;60.28;;;6.10;99.90;;;6.47;74.05;102800.50;5114152;28;20048;-70
2022/03/21 03:32:39;;;;;;;91.07;61.75;;;6.10;99.90;;;6.50;73.73;102796.28;5114190;28;20036;-70
2022/03/21 03:35:09;;;;;;;94.40;64.37;;;6.20;99.90;;;6.51;73.75;102799.78;5114466;28;20035;-70
2022/03/21 03:37:38;;;;;;;90.77;61.73;;;6.20;99.90;;;6.49;73.60;102798.81;5114062;28;20493;-70
2022/03/21 03:40:08;;;;;;;86.20;60.13;;;6.20;99.90;;;6.34;73.67;102801.69;5114198;28;20325;-70
2022/03/21 03:42:37;;;;;;;85.50;57.88;;;6.10;99.90;;;5.37;73.96;102654.63;5114255;28;20451;-71
2022/03/21 03:45:07;;;;;;;88.65;58.17;;;5.90;99.90;;;5.94;74.49;102798.16;5114254;28;20043;-71
2022/03/21 03:47:37;;;;;;;90.05;60.45;;;5.80;99.90;;;5.78;74.82;102762.38;5114023;28;20043;-71
2022/03/21 03:50:07;;;;;;;89.97;61.58;;;5.70;99.90;;;5.79;75.05;102810.53;5113910;28;20077;-71
2022/03/21 03:52:35;;;;;;;91.33;61.90;;;5.60;99.90;;;5.67;75.43;102815.22;5113864;28;20088;-70
2022/03/21 03:55:04;;;;;;;89.65;61.72;;;5.50;99.90;;;5.93;75.07;102807.75;5114332;28;20051;-71
2022/03/21 03:57:33;;;;;;;86.55;60.17;;;5.60;99.90;;;5.85;74.89;102805.59;5113664;28;20134;-71
2022/03/21 04:00:01;;;;;;;88.57;60.47;;;5.60;99.90;;;5.78;75.10;102800.84;5113614;28;20396;-70
2022/03/21 04:05:28;;;;;;;88.18;60.53;;;5.60;99.90;;;5.55;74.92;102765.69;5113708;28;20047;-70
2022/03/21 04:07:56;;;;;;;92.23;61.07;;;5.60;99.90;;;5.86;74.56;102821.44;5095645;28;20045;-71
2022/03/21 04:10:25;;;;;;;93.57;61.35;;;5.60;99.90;;;5.97;74.52;102817.56;5113850;28;20386;-71
2022/03/21 04:12:53;;;;;;;86.60;60.13;;;5.70;99.90;;;5.92;74.44;102816.44;5113581;28;20114;-71
2022/03/21 04:15:22;;;;;;;89.55;58.47;;;5.70;99.90;;;5.81;74.42;102796.63;5113539;28;20077;-71
2022/03/21 04:17:53;;;;;;;89.47;60.53;;;5.70;99.90;;;5.94;73.78;102820.03;5113900;28;20043;-70
2022/03/21 04:20:23;;;;;;;87.93;59.28;;;5.70;99.90;;;5.40;73.93;102736.13;5113789;28;20044;-70
2022/03/21 04:22:51;;;;;;;87.93;58.75;;;5.60;99.90;;;5.82;74.08;102814.22;5095564;28;20051;-71
2022/03/21 04:25:20;;;;;;;86.68;58.47;;;5.60;99.90;;;5.16;74.13;102700.84;5113677;28;20084;-71
2022/03/21 04:27:49;;;;;;;85.88;58.80;;;5.60;99.90;;;5.92;74.05;102821.69;5113613;28;20092;-70
2022/03/21 04:30:17;;;;;;;86.03;57.93;;;5.60;99.90;;;5.61;74.01;102763.34;5113721;28;20047;-71
2022/03/21 04:32:46;;;;;;;83.13;56.75;;;5.70;99.90;;;5.87;73.84;102828.47;5113377;28;20047;-71
2022/03/21 04:35:16;;;;;;;87.93;59.47;;;5.70;99.90;;;5.77;73.89;102820.09;5095352;28;20516;-71
2022/03/21 04:37:45;;;;;;;89.10;60.92;;;5.60;99.90;;;5.57;74.03;102784.13;5095468;28;20134;-70
2022/03/21 04:40:13;;;;;;;88.93;58.37;;;5.50;99.90;;;5.66;74.48;102818.66;5095185;28;20093;-71
2022/03/21 04:42:42;;;;;;;83.97;57.77;;;5.40;99.90;;;5.48;74.46;102843.22;5113312;28;20092;-71
2022/03/21 04:45:10;;;;;;;84.13;58.07;;;5.40;99.90;;;5.65;74.51;102824.75;5113266;28;20076;-72
2022/03/21 04:47:39;;;;;;;83.45;55.20;;;5.40;99.90;;;5.65;74.19;102825.66;5113230;28;20036;-71
2022/03/21 04:50:09;;;;;;;82.87;54.57;;;5.40;99.90;;;5.67;73.89;102823.97;5113167;28;20119;-70
2022/03/21 04:52:39;;;;;;;87.75;58.80;;;5.50;99.90;;;5.67;73.71;102815.22;5113473;28;20092;-71
2022/03/21 04:55:09;;;;;;;88.43;59.17;;;5.50;99.90;;;5.81;73.33;102838.66;5113384;28;20044;-71
2022/03/21 04:57:43;;;;;;;84.10;58.70;;;5.60;99.90;;;5.88;73.48;102832.00;5113715;28;20050;-71
2022/03/21 05:00:13;;;;;;;84.50;58.75;;;5.60;99.90;;;5.84;73.04;102790.69;5112981;28;20036;-71
2022/03/21 05:02:42;;;;;;;80.53;56.38;;;5.80;99.90;;;6.24;72.01;102815.25;5095042;28;20051;-71
2022/03/21 05:05:11;;;;;;;79.65;55.28;;;6.00;99.90;;;6.34;71.85;102833.25;5113157;28;20042;-71
2022/03/21 05:07:42;;;;;;;80.78;55.25;;;6.10;99.90;;;6.13;71.65;102840.16;5113998;28;20039;-69
2022/03/21 05:10:11;;;;;;;85.15;57.70;;;6.00;99.90;;;4.02;72.19;102497.09;5098689;28;20506;-69
2022/03/21 05:12:40;;;;;;;81.15;54.83;;;5.80;99.90;;;5.79;72.75;102837.69;5117074;28;20101;-70
2022/03/21 05:15:10;;;;;;;88.88;58.55;;;5.60;99.90;;;5.75;72.74;102842.75;5116779;28;20077;-70
2022/03/21 05:17:39;;;;;;;89.70;58.25;;;5.50;99.90;;;5.80;72.97;102842.13;5116710;28;20047;-70
2022/03/21 05:20:11;;;;;;;86.83;58.40;;;5.50;99.90;;;5.87;72.72;102852.09;5116586;28;20066;-70
2022/03/21 05:22:41;;;;;;;88.63;57.50;;;5.60;99.90;;;5.87;72.28;102841.59;5116694;28;20036;-68
2022/03/21 05:31:02;;;;;;;86.50;59.50;;;5.60;99.90;;;5.89;72.24;102852.16;5098851;28;20080;-70
2022/03/21 05:36:18;;;;;;;90.63;60.42;;;5.70;99.90;;;5.86;72.11;102839.81;5116771;28;20039;-70
2022/03/21 05:38:48;;;;;;;87.40;57.23;;;5.70;99.90;;;6.11;71.97;102863.75;5116366;28;20097;-70
2022/03/21 05:41:16;;;;;;;82.97;57.05;;;5.90;99.90;;;6.17;71.28;102865.75;5116522;28;20124;-70
2022/03/21 05:43:45;;;;;;;83.22;58.03;;;5.90;99.90;;;6.32;70.96;102867.34;5116258;28;20090;-70
2022/03/21 05:46:14;;;;;;;83.10;58.33;;;6.00;99.90;;;6.22;70.45;102865.13;5116244;28;20050;-69
2022/03/21 05:48:51;;;;;;;82.25;58.05;;;6.10;99.90;;;6.39;70.42;102861.50;5116236;28;20042;-70
2022/03/21 05:51:23;;;;;;;82.78;57.45;;;6.20;99.90;;;6.42;70.38;102867.75;5116398;28;20092;-70
2022/03/21 05:53:53;;;;;;;80.85;55.78;;;6.20;99.90;;;6.43;70.19;102841.50;5116178;28;20046;-70
2022/03/21 05:56:22;;;;;;;85.80;57.58;;;6.30;99.90;;;6.64;70.13;102870.50;5116324;28;20097;-70
2022/03/21 05:58:51;;;;;;;81.20;59.38;;;6.40;99.90;;;6.69;70.06;102869.84;5116549;28;20040;-69
2022/03/21 06:01:22;;;;;;;84.72;58.70;;;6.40;99.90;;;6.46;69.87;102836.41;5097786;28;20039;-70
2022/03/21 06:03:52;;;;;;;85.60;58.30;;;6.40;99.90;;;6.53;70.16;102863.84;5097952;28;20047;-70
2022/03/21 06:06:21;;;;;;;84.88;57.80;;;6.30;99.90;;;6.74;70.14;102881.47;5115879;28;20062;-70
2022/03/21 06:08:51;;;;;;;82.93;57.50;;;6.40;99.90;;;6.78;69.94;102890.38;5115707;28;20109;-69
2022/03/21 06:11:21;;;;;;;87.10;59.15;;;6.50;99.90;;;6.86;69.51;102866.22;5113720;28;20085;-69
2022/03/21 06:13:50;;;;;;;82.68;58.65;;;6.70;99.90;;;7.11;69.28;102890.09;5115712;28;20058;-70
2022/03/21 06:16:18;;;;;;;86.60;59.50;;;6.80;99.90;;;7.32;68.93;102897.97;5115670;28;20054;-70
2022/03/21 06:18:47;;;;;;;82.22;58.10;;;7.00;99.90;;;7.40;68.46;102896.56;5115799;28;20059;-70
2022/03/21 06:21:16;;;;;;;82.28;58.95;;;7.20;99.90;;;7.46;67.48;102867.84;5115058;28;20036;-70
2022/03/21 06:23:46;;;;;;;82.30;57.25;;;7.30;99.90;;;7.71;67.13;102911.84;5115422;28;20550;-70
2022/03/21 06:26:15;;;;;;;81.90;57.88;;;7.40;99.90;;;7.93;67.01;102907.50;5115488;28;20067;-70
2022/03/21 06:28:45;;;;;;;83.30;57.30;;;7.60;99.90;;;7.84;66.27;102883.41;5097277;28;20472;-70
2022/03/21 06:31:14;;;;;;;82.65;57.05;;;7.70;99.90;;;7.72;66.05;102887.31;5115758;28;20044;-70
2022/03/21 06:33:42;;;;;;;82.90;57.85;;;7.60;99.90;;;7.70;66.54;102896.91;5097037;28;20138;-70
2022/03/21 06:36:14;;;;;;;86.18;61.33;;;7.50;99.90;;;7.66;66.71;102910.78;5115145;28;20040;-70
2022/03/21 06:38:43;;;;;;;82.82;60.22;;;7.40;99.90;;;7.37;67.00;102867.47;5115210;28;20043;-70
2022/03/21 06:41:11;;;;;;;79.70;58.55;;;7.30;99.90;;;7.70;67.22;102907.44;5115066;28;20055;-71
2022/03/21 06:43:40;;;;;;;83.07;59.30;;;7.30;99.90;;;7.94;66.86;102911.03;5115548;28;20047;-70
2022/03/21 06:46:09;;;;;;;79.30;57.38;;;7.50;99.90;;;8.00;66.09;102917.44;5096941;28;20075;-70
2022/03/21 06:48:38;;;;;;;80.65;58.15;;;7.70;99.90;;;8.01;65.91;102919.22;5115164;28;20074;-70
2022/03/21 06:51:06;;;;;;;82.55;57.22;;;7.70;99.90;;;7.79;65.83;102884.09;5114855;28;20122;-71
2022/03/21 06:53:35;;;;;;;81.85;57.63;;;7.70;99.90;;;7.68;66.63;102881.03;5115064;28;20035;-71
2022/03/21 06:56:03;;;;;;;82.57;56.17;;;7.60;99.90;;;7.80;66.38;102926.28;5114880;28;20040;-70
2022/03/21 06:58:32;;;;;;;83.90;57.97;;;7.50;99.90;;;7.67;67.10;102913.47;5114845;28;20092;-70
2022/03/21 07:01:01;;;;;;;80.35;57.47;;;7.50;99.90;;;7.65;67.21;102915.13;5114619;28;20063;-70
2022/03/21 07:03:32;;;;;;;88.78;58.20;;;7.40;99.90;;;7.85;67.01;102937.00;5114808;28;20052;-70
2022/03/21 07:06:01;;;;;;;83.47;58.35;;;7.50;99.90;;;7.90;66.39;102912.63;5114534;28;20508;-68
2022/03/21 07:08:31;;;;;;;82.47;56.42;;;7.70;99.90;;;8.27;65.87;102948.34;5114835;28;20121;-68
2022/03/21 07:11:00;;;;;;;83.47;58.22;;;7.90;99.90;;;8.24;65.82;102941.22;5114356;28;20105;-68
2022/03/21 07:13:29;;;;;;;82.03;57.35;;;7.90;99.90;;;8.17;65.95;102941.78;5114801;28;20538;-68
2022/03/21 07:15:58;;;;;;;86.85;57.13;;;7.90;99.90;;;8.11;65.86;102923.09;5114658;28;20401;-68
2022/03/21 07:18:26;;;;;;;83.03;56.95;;;7.90;99.90;;;8.34;66.09;102922.31;5114335;28;20458;-68
2022/03/21 07:20:56;;;;;;;84.68;59.53;;;8.10;99.90;;;8.59;65.37;102914.47;5095952;28;20050;-68
2022/03/21 07:23:25;;;;;;;79.75;56.72;;;8.30;99.90;;;8.78;64.73;102919.53;5114613;28;20040;-69
2022/03/21 07:25:53;;;;;;;77.45;56.17;;;8.50;99.90;;;9.22;64.34;102947.47;5114550;28;20044;-68
2022/03/21 07:28:22;;;;;;;82.35;58.17;;;8.80;99.90;;;9.20;64.50;102943.88;5095962;28;20096;-68
2022/03/21 07:31:10;;;;;;;76.85;54.97;;;8.90;99.90;;;9.29;64.34;102948.59;5113273;28;20040;-69
2022/03/21 07:33:39;;;;;;;75.25;54.95;;;9.00;99.90;;;9.39;64.32;102945.44;5114065;28;20549;-68
2022/03/21 07:36:10;;;;;;;75.65;56.17;;;9.10;99.90;;;9.39;64.81;102962.16;5114072;28;20035;-68
2022/03/21 07:38:38;;;;;;;75.00;55.50;;;9.20;99.90;;;9.57;64.81;102951.31;5114151;28;20485;-68
2022/03/21 07:41:08;;;;;;;76.60;55.42;;;9.20;99.90;;;10.06;64.37;102954.69;5114200;28;20385;-68
2022/03/21 07:43:37;;;;;;;78.50;54.97;;;9.70;99.90;;;9.99;63.30;102964.16;5096031;28;20456;-69
2022/03/21 07:48:52;;;;;;;81.30;56.58;;;9.70;99.90;;;10.03;63.44;102966.06;5095857;28;20130;-70
2022/03/21 07:51:22;;;;;;;75.05;53.97;;;9.70;99.90;;;10.36;63.27;102965.31;5114011;28;20039;-71
2022/03/21 07:53:51;;;;;;;75.55;53.80;;;10.00;99.90;;;10.48;63.11;102957.75;5113803;28;20065;-71
2022/03/21 07:56:24;;;;;;;76.80;53.85;;;10.10;99.90;;;10.71;62.38;102973.44;5095296;28;20051;-71
2022/03/21 07:58:52;;;;;;;75.05;54.03;;;10.30;99.90;;;10.74;63.09;102972.66;5113965;28;20051;-71
2022/03/21 08:01:21;;;;;;;66.30;51.63;;;10.30;99.90;;;10.92;61.92;102944.03;5095701;28;20074;-71
2022/03/21 08:03:50;;;;;;;72.78;54.60;;;10.60;99.90;;;11.68;60.70;102973.47;5095670;28;20032;-71
2022/03/21 08:06:18;;;;;;;68.95;50.78;;;11.20;99.90;;;12.01;59.36;102963.66;5095670;28;20055;-71
2022/03/21 08:08:49;;;;;;;70.00;50.22;;;11.70;99.90;;;12.16;59.28;102957.78;5113628;28;20451;-71
2022/03/21 08:11:18;;;;;;;71.03;50.03;;;11.90;99.90;;;12.17;58.76;102986.13;5113767;28;20061;-71
2022/03/21 08:13:49;;;;;;;63.47;48.45;;;12.00;99.90;;;12.46;58.64;102977.97;5113272;28;20259;-71
2022/03/21 08:16:21;;;;;;;61.83;44.95;;;12.10;99.90;;;12.48;56.62;102984.22;5113415;28;20118;-71
2022/03/21 08:18:51;;;;;;;64.32;46.65;;;12.20;99.90;;;12.22;57.61;102931.41;5113582;28;20059;-71
2022/03/21 08:21:21;;;;;;;61.03;43.90;;;12.20;99.90;;;12.20;56.21;102983.53;5113782;28;20489;-71
2022/03/21 08:23:53;;;;;;;57.40;40.97;;;12.00;99.90;;;11.78;55.79;102939.25;5113312;28;20069;-71
2022/03/21 08:26:22;;;;;;;57.60;41.35;;;11.70;99.90;;;12.42;55.42;102984.06;5113486;28;20104;-71
2022/03/21 08:28:50;;;;;;;51.13;38.40;;;12.00;99.90;;;12.70;54.32;102973.16;5113344;28;20118;-71
2022/03/21 08:31:19;;;;;;;56.55;42.70;;;12.30;99.90;;;12.93;53.87;102978.06;5113331;28;20036;-71
2022/03/21 08:33:47;;;;;;;55.40;41.30;;;12.60;99.90;;;13.19;52.73;102988.34;5113310;28;20039;-71
2022/03/21 08:36:16;;;;;;;51.97;40.53;;;12.80;99.90;;;13.20;53.44;102987.47;5113304;28;20047;-71
2022/03/21 08:38:44;;;;;;;54.40;41.72;;;12.80;99.90;;;13.32;51.71;102966.44;5113267;28;20064;-71
2022/03/21 08:41:16;;;;;;;54.60;40.95;;;13.10;99.90;;;13.38;52.26;102982.50;5113219;28;20039;-71
2022/03/21 08:43:44;;;;;;;54.28;38.63;;;13.10;99.90;;;13.57;51.74;102959.78;5116024;28;20505;-71
2022/03/21 08:46:13;;;;;;;54.20;40.15;;;13.30;99.90;;;13.81;50.01;102967.25;5117257;28;20047;-71
2022/03/21 08:51:59;;;;;;;49.15;36.17;;;13.70;99.90;;;13.43;48.77;102982.59;5054347;28;20095;-70
2022/03/21 08:54:28;;;;;;;52.17;36.88;;;13.20;99.90;;;13.38;49.05;102978.94;5054372;28;20049;-70
2022/03/21 08:56:58;;;;;;;50.08;36.17;;;13.20;99.90;;;13.55;47.87;102996.06;5090476;28;20140;-68
2022/03/21 08:59:27;;;;;;;43.30;32.72;;;13.20;99.90;;;13.48;47.43;102996.84;5117373;28;20401;-68
2022/03/21 09:01:55;;;;;;;45.42;34.17;;;13.20;99.90;;;13.76;46.62;102984.94;5117101;28;20035;-68
2022/03/21 09:04:24;;;;;;;46.47;34.42;;;13.40;99.90;;;13.65;45.91;102982.06;5117389;28;20048;-68
2022/03/21 09:06:53;;;;;;;47.90;36.40;;;13.50;99.90;;;13.85;46.51;102998.38;5098921;28;20075;-68
2022/03/21 09:09:21;;;;;;;49.72;37.42;;;13.50;99.90;;;13.95;47.81;102995.00;5116953;28;20040;-69
2022/03/21 09:11:57;;;;;;;53.47;37.20;;;13.60;99.90;;;13.74;47.70;102997.31;5117230;28;20039;-68
2022/03/21 09:14:28;;;;;;;44.90;33.38;;;13.50;99.90;;;13.71;46.31;102967.97;5117098;28;20046;-68
2022/03/21 09:16:57;;;;;;;47.17;33.97;;;13.60;99.90;;;13.75;45.60;102996.41;5116930;28;20532;-68
2022/03/21 09:19:27;;;;;;;51.88;35.72;;;13.50;99.90;;;13.46;46.11;103001.25;5116730;28;20031;-70
2022/03/21 09:21:58;;;;;;;50.88;35.55;;;13.20;99.90;;;14.15;46.32;102998.88;5117071;28;20078;-71
2022/03/21 09:24:28;;;;;;;49.38;35.28;;;13.70;99.90;;;14.26;45.22;102995.50;5117036;28;20049;-70
2022/03/21 09:26:58;;;;;;;53.22;38.00;;;14.00;99.90;;;14.40;46.68;102974.41;5098609;28;20063;-70
2022/03/21 09:29:27;;;;;;;49.67;37.70;;;14.20;99.90;;;14.68;46.34;102973.00;5116398;28;20035;-71
2022/03/21 09:31:55;;;;;;;54.80;39.08;;;14.50;99.90;;;15.07;45.57;102981.47;5116413;28;20048;-71
2022/03/21 09:34:24;;;;;;;54.15;37.42;;;14.80;99.90;;;14.63;44.77;102967.63;5116499;28;20096;-70
2022/03/21 09:36:53;;;;;;;51.83;36.95;;;14.60;99.90;;;14.40;45.80;102987.72;5116405;28;20089;-71
2022/03/21 09:39:21;;;;;;;48.45;36.75;;;14.10;99.90;;;14.13;46.53;102980.19;5116911;28;20092;-70
2022/03/21 09:41:51;;;;;;;49.55;36.85;;;14.00;99.90;;;13.94;46.92;102983.44;5098440;28;20401;-70
2022/03/21 09:44:21;;;;;;;50.72;35.08;;;13.60;99.90;;;13.31;47.61;102972.63;5116152;28;20409;-68
2022/03/21 09:46:49;;;;;;;56.03;37.47;;;13.30;99.90;;;13.57;49.10;102968.66;5116657;28;20078;-68
2022/03/21 09:49:19;;;;;;;51.35;36.00;;;13.20;99.90;;;13.99;46.94;102994.16;5116128;28;20048;-68
2022/03/21 09:51:50;;;;;;;50.75;36.58;;;13.50;99.90;;;13.61;47.43;102992.66;5116336;28;20051;-68
2022/03/21 09:54:18;;;;;;;51.20;34.75;;;13.40;99.90;;;13.28;48.01;102976.97;5115052;28;20055;-68
2022/03/21 09:56:47;;;;;;;48.60;33.92;;;13.10;99.90;;;13.23;47.41;102987.53;5115938;28;20093;-68
2022/03/21 09:59:15;;;;;;;48.10;34.40;;;13.00;99.90;;;13.70;47.81;102983.06;5115886;28;20412;-68
2022/03/21 10:01:46;;;;;;;54.55;32.33;;;13.30;99.90;;;13.23;47.50;102974.25;5116126;28;20047;-68
2022/03/21 10:04:15;;;;;;;45.08;33.00;;;13.10;99.90;;;13.68;46.62;102979.47;5115746;28;20050;-68
2022/03/21 10:06:44;;;;;;;45.20;31.98;;;13.30;99.90;;;13.93;45.79;102956.81;5115793;28;20090;-68
2022/03/21 10:09:15;;;;;;;51.30;32.75;;;13.70;99.90;;;14.01;45.55;102931.22;5115527;28;20047;-67
2022/03/21 10:11:51;;;;;;;44.40;31.13;;;13.80;99.90;;;14.59;44.46;102971.13;5115698;28;20044;-69
2022/03/21 10:14:32;;;;;;;44.40;31.10;;;14.30;99.90;;;15.20;45.20;102988.69;5097800;28;20047;-68
2022/03/21 10:17:06;;;;;;;46.88;31.67;;;14.80;99.90;;;15.19;43.83;102981.59;5115996;28;20035;-69
2022/03/21 10:19:45;;;;;;;40.58;29.15;;;15.00;99.90;;;14.59;42.95;102932.94;5116254;28;20049;-68
2022/03/21 10:22:16;;;;;;;42.30;29.70;;;14.70;99.90;;;14.39;43.10;102981.50;5115577;28;20400;-68
2022/03/21 10:24:45;;;;;;;;;;;14.30;99.90;;;14.56;43.66;102973.72;5116283;28;20031;-68
2022/03/21 10:27:32;;;;;;;44.05;29.77;;;14.20;99.90;;;14.88;44.79;102975.03;5115415;28;19951;-69
2022/03/21 10:30:07;;;;;;;45.20;29.98;;;14.50;99.90;;;15.42;43.50;102988.09;5115432;28;20050;-68
2022/03/21 10:32:42;;;;;;;41.03;30.05;;;15.00;99.90;;;15.51;42.42;102984.59;5115415;28;20040;-68
2022/03/21 10:35:17;;;;;;;41.60;28.27;;;15.20;99.90;;;15.29;42.53;102951.50;5115370;28;20481;-68
2022/03/21 10:37:49;;;;;;;36.72;26.08;;;15.20;99.90;;;14.84;39.71;102998.97;5115114;28;20077;-68
2022/03/21 10:40:27;;;;;;;35.33;25.67;;;14.90;99.90;;;14.91;40.30;102983.06;5115494;28;20069;-68
2022/03/21 10:42:59;;;;;;;34.08;24.95;;;14.50;99.90;;;15.22;39.45;102976.28;5115084;28;20039;-68